Terminal Aerodrome Forecast
Issued by NWS

Home | Current Version | Previous Version | Text Only | Print | Product List | Glossary On
Versions: 1 2 3 4 5 6 7 8 9 10 11 12 13
862
FTUS42 KMLB 212359
TAFSFB
TAF
KSFB 212359Z 2200/2224 21008KT P6SM SKC
     FM220800 19008KT P6SM SCT010 BKN035 WS015/22033KT
     FM221300 20015G25KT P6SM SCT015 BKN035
     FM221900 21020G30KT P6SM VCTS BKN035CB
      TEMPO 2221/2223 25030G40KT 2SM +TSRA BKN015CB=

USA.gov is the U.S. government's official web portal to all federal, state and local government web resources and services.